sensor_id;sensor_type;location;lat;lon;timestamp;P1;durP1;ratioP1;P2;durP2;ratioP2
12129;SDS011;6128;59.340;18.040;2022-12-29T00:01:44;4.60;;;3.30;;
12129;SDS011;6128;59.340;18.040;2022-12-29T00:04:12;4.73;;;3.67;;
12129;SDS011;6128;59.340;18.040;2022-12-29T00:06:40;4.97;;;3.53;;
12129;SDS011;6128;59.340;18.040;2022-12-29T00:09:07;5.23;;;3.60;;
12129;SDS011;6128;59.340;18.040;2022-12-29T00:11:37;4.00;;;3.50;;
12129;SDS011;6128;59.340;18.040;2022-12-29T00:14:05;4.73;;;3.90;;
12129;SDS011;6128;59.340;18.040;2022-12-29T00:16:49;3.57;;;3.27;;
12129;SDS011;6128;59.340;18.040;2022-12-29T00:19:16;3.60;;;3.13;;
12129;SDS011;6128;59.340;18.040;2022-12-29T00:22:01;6.43;;;3.83;;
12129;SDS011;6128;59.340;18.040;2022-12-29T00:24:46;4.57;;;3.57;;
12129;SDS011;6128;59.340;18.040;2022-12-29T00:27:32;4.00;;;3.30;;
12129;SDS011;6128;59.340;18.040;2022-12-29T00:30:22;3.83;;;3.33;;
12129;SDS011;6128;59.340;18.040;2022-12-29T00:33:08;4.07;;;2.97;;
12129;SDS011;6128;59.340;18.040;2022-12-29T00:35:54;3.90;;;3.23;;
12129;SDS011;6128;59.340;18.040;2022-12-29T00:38:24;5.17;;;3.30;;
12129;SDS011;6128;59.340;18.040;2022-12-29T00:41:09;4.23;;;3.50;;
12129;SDS011;6128;59.340;18.040;2022-12-29T00:43:55;4.73;;;3.20;;
12129;SDS011;6128;59.340;18.040;2022-12-29T00:46:41;4.47;;;3.53;;
12129;SDS011;6128;59.340;18.040;2022-12-29T00:49:09;4.90;;;3.70;;
12129;SDS011;6128;59.340;18.040;2022-12-29T00:51:57;4.07;;;3.57;;
12129;SDS011;6128;59.340;18.040;2022-12-29T00:54:26;5.10;;;4.00;;
12129;SDS011;6128;59.340;18.040;2022-12-29T00:56:54;6.03;;;4.00;;
12129;SDS011;6128;59.340;18.040;2022-12-29T00:59:23;5.80;;;4.30;;
12129;SDS011;6128;59.340;18.040;2022-12-29T01:01:50;6.13;;;3.90;;
12129;SDS011;6128;59.340;18.040;2022-12-29T01:04:18;9.67;;;4.60;;
12129;SDS011;6128;59.340;18.040;2022-12-29T01:06:46;7.20;;;4.60;;
12129;SDS011;6128;59.340;18.040;2022-12-29T01:09:13;6.03;;;4.27;;
12129;SDS011;6128;59.340;18.040;2022-12-29T01:11:58;5.93;;;4.50;;
12129;SDS011;6128;59.340;18.040;2022-12-29T01:14:27;5.47;;;4.10;;
12129;SDS011;6128;59.340;18.040;2022-12-29T01:16:54;5.33;;;3.90;;
12129;SDS011;6128;59.340;18.040;2022-12-29T01:19:21;5.33;;;4.33;;
12129;SDS011;6128;59.340;18.040;2022-12-29T01:21:49;5.77;;;3.80;;
12129;SDS011;6128;59.340;18.040;2022-12-29T01:24:17;7.03;;;4.60;;
12129;SDS011;6128;59.340;18.040;2022-12-29T01:26:45;9.43;;;3.60;;
12129;SDS011;6128;59.340;18.040;2022-12-29T01:29:12;6.70;;;4.10;;
12129;SDS011;6128;59.340;18.040;2022-12-29T01:31:41;5.40;;;3.67;;
12129;SDS011;6128;59.340;18.040;2022-12-29T01:34:08;5.27;;;3.53;;
12129;SDS011;6128;59.340;18.040;2022-12-29T01:36:35;4.73;;;3.90;;
12129;SDS011;6128;59.340;18.040;2022-12-29T01:39:02;9.97;;;2.80;;
12129;SDS011;6128;59.340;18.040;2022-12-29T01:41:29;5.40;;;3.20;;
12129;SDS011;6128;59.340;18.040;2022-12-29T01:43:59;5.07;;;3.20;;
12129;SDS011;6128;59.340;18.040;2022-12-29T01:46:28;4.87;;;3.50;;
12129;SDS011;6128;59.340;18.040;2022-12-29T01:49:03;11.23;;;4.10;;
12129;SDS011;6128;59.340;18.040;2022-12-29T01:51:37;5.77;;;3.47;;
12129;SDS011;6128;59.340;18.040;2022-12-29T01:54:08;4.83;;;3.30;;
12129;SDS011;6128;59.340;18.040;2022-12-29T01:56:39;4.30;;;3.30;;
12129;SDS011;6128;59.340;18.040;2022-12-29T01:59:08;4.50;;;3.80;;
12129;SDS011;6128;59.340;18.040;2022-12-29T02:01:38;7.73;;;3.73;;
12129;SDS011;6128;59.340;18.040;2022-12-29T02:04:07;4.50;;;3.10;;
12129;SDS011;6128;59.340;18.040;2022-12-29T02:06:38;3.60;;;2.70;;
12129;SDS011;6128;59.340;18.040;2022-12-29T02:09:11;7.93;;;3.40;;
12129;SDS011;6128;59.340;18.040;2022-12-29T02:11:38;4.90;;;3.20;;
12129;SDS011;6128;59.340;18.040;2022-12-29T02:14:08;4.60;;;3.73;;
12129;SDS011;6128;59.340;18.040;2022-12-29T02:16:40;4.70;;;2.90;;
12129;SDS011;6128;59.340;18.040;2022-12-29T02:22:26;4.40;;;3.40;;
12129;SDS011;6128;59.340;18.040;2022-12-29T02:28:07;11.70;;;3.10;;
12129;SDS011;6128;59.340;18.040;2022-12-29T02:30:58;6.87;;;3.10;;
12129;SDS011;6128;59.340;18.040;2022-12-29T02:33:40;16.50;;;3.43;;
12129;SDS011;6128;59.340;18.040;2022-12-29T02:36:20;4.33;;;3.17;;
12129;SDS011;6128;59.340;18.040;2022-12-29T02:38:57;5.00;;;3.80;;
12129;SDS011;6128;59.340;18.040;2022-12-29T02:41:30;4.43;;;2.83;;
12129;SDS011;6128;59.340;18.040;2022-12-29T02:44:00;6.73;;;3.00;;
12129;SDS011;6128;59.340;18.040;2022-12-29T02:46:36;4.00;;;3.10;;
12129;SDS011;6128;59.340;18.040;2022-12-29T02:49:09;3.53;;;2.93;;
12129;SDS011;6128;59.340;18.040;2022-12-29T02:51:50;5.23;;;3.60;;
12129;SDS011;6128;59.340;18.040;2022-12-29T02:54:21;4.70;;;3.23;;
12129;SDS011;6128;59.340;18.040;2022-12-29T02:57:08;4.00;;;3.47;;
12129;SDS011;6128;59.340;18.040;2022-12-29T02:59:40;4.47;;;3.67;;
12129;SDS011;6128;59.340;18.040;2022-12-29T03:02:21;4.20;;;2.93;;
12129;SDS011;6128;59.340;18.040;2022-12-29T03:05:04;3.33;;;3.03;;
12129;SDS011;6128;59.340;18.040;2022-12-29T03:07:43;5.80;;;3.70;;
12129;SDS011;6128;59.340;18.040;2022-12-29T03:10:21;4.17;;;3.13;;
12129;SDS011;6128;59.340;18.040;2022-12-29T03:13:01;4.63;;;3.00;;
12129;SDS011;6128;59.340;18.040;2022-12-29T03:15:53;2.90;;;2.60;;
12129;SDS011;6128;59.340;18.040;2022-12-29T03:18:32;3.77;;;3.17;;
12129;SDS011;6128;59.340;18.040;2022-12-29T03:21:16;3.60;;;3.13;;
12129;SDS011;6128;59.340;18.040;2022-12-29T03:24:08;4.40;;;3.20;;
12129;SDS011;6128;59.340;18.040;2022-12-29T03:26:38;3.90;;;3.43;;
12129;SDS011;6128;59.340;18.040;2022-12-29T03:29:08;3.77;;;3.20;;
12129;SDS011;6128;59.340;18.040;2022-12-29T03:31:36;5.00;;;3.33;;
12129;SDS011;6128;59.340;18.040;2022-12-29T03:34:06;5.53;;;3.87;;
12129;SDS011;6128;59.340;18.040;2022-12-29T03:36:36;5.70;;;3.60;;
12129;SDS011;6128;59.340;18.040;2022-12-29T03:39:10;4.77;;;3.30;;
12129;SDS011;6128;59.340;18.040;2022-12-29T03:41:39;4.70;;;3.80;;
12129;SDS011;6128;59.340;18.040;2022-12-29T03:44:09;4.87;;;3.83;;
12129;SDS011;6128;59.340;18.040;2022-12-29T03:46:37;4.13;;;3.43;;
12129;SDS011;6128;59.340;18.040;2022-12-29T03:49:04;5.60;;;4.10;;
12129;SDS011;6128;59.340;18.040;2022-12-29T03:51:33;5.23;;;3.77;;
12129;SDS011;6128;59.340;18.040;2022-12-29T03:54:00;4.13;;;3.70;;
12129;SDS011;6128;59.340;18.040;2022-12-29T03:56:27;3.63;;;3.27;;
12129;SDS011;6128;59.340;18.040;2022-12-29T03:58:54;3.83;;;3.40;;
12129;SDS011;6128;59.340;18.040;2022-12-29T04:01:21;5.07;;;4.00;;
12129;SDS011;6128;59.340;18.040;2022-12-29T04:03:48;3.40;;;3.03;;
12129;SDS011;6128;59.340;18.040;2022-12-29T04:06:17;3.60;;;3.30;;
12129;SDS011;6128;59.340;18.040;2022-12-29T04:08:44;3.13;;;2.83;;
12129;SDS011;6128;59.340;18.040;2022-12-29T04:11:11;3.43;;;3.13;;
12129;SDS011;6128;59.340;18.040;2022-12-29T04:13:38;5.37;;;2.97;;
12129;SDS011;6128;59.340;18.040;2022-12-29T04:16:08;3.00;;;2.80;;
12129;SDS011;6128;59.340;18.040;2022-12-29T04:18:35;3.23;;;2.93;;
12129;SDS011;6128;59.340;18.040;2022-12-29T04:21:03;3.07;;;2.83;;
12129;SDS011;6128;59.340;18.040;2022-12-29T04:23:32;3.67;;;3.37;;
12129;SDS011;6128;59.340;18.040;2022-12-29T04:26:01;3.57;;;2.87;;
12129;SDS011;6128;59.340;18.040;2022-12-29T04:28:30;3.07;;;2.73;;
12129;SDS011;6128;59.340;18.040;2022-12-29T04:30:57;3.13;;;2.83;;
12129;SDS011;6128;59.340;18.040;2022-12-29T04:33:24;3.30;;;3.00;;
12129;SDS011;6128;59.340;18.040;2022-12-29T04:35:52;4.73;;;3.40;;
12129;SDS011;6128;59.340;18.040;2022-12-29T04:38:20;3.17;;;2.87;;
12129;SDS011;6128;59.340;18.040;2022-12-29T04:40:50;4.33;;;3.50;;
12129;SDS011;6128;59.340;18.040;2022-12-29T04:43:17;3.87;;;3.23;;
12129;SDS011;6128;59.340;18.040;2022-12-29T04:45:46;3.60;;;3.33;;
12129;SDS011;6128;59.340;18.040;2022-12-29T04:48:15;3.43;;;3.13;;
12129;SDS011;6128;59.340;18.040;2022-12-29T04:50:42;3.63;;;3.33;;
12129;SDS011;6128;59.340;18.040;2022-12-29T04:53:10;3.60;;;3.10;;
12129;SDS011;6128;59.340;18.040;2022-12-29T04:55:37;3.70;;;3.40;;
12129;SDS011;6128;59.340;18.040;2022-12-29T04:58:05;3.30;;;3.00;;
12129;SDS011;6128;59.340;18.040;2022-12-29T05:00:33;3.20;;;2.90;;
12129;SDS011;6128;59.340;18.040;2022-12-29T05:03:00;3.47;;;3.13;;
12129;SDS011;6128;59.340;18.040;2022-12-29T05:05:30;3.17;;;2.87;;
12129;SDS011;6128;59.340;18.040;2022-12-29T05:07:57;3.60;;;2.93;;
12129;SDS011;6128;59.340;18.040;2022-12-29T05:10:24;3.80;;;3.50;;
12129;SDS011;6128;59.340;18.040;2022-12-29T05:12:52;3.03;;;2.83;;
12129;SDS011;6128;59.340;18.040;2022-12-29T05:15:20;3.33;;;2.97;;
12129;SDS011;6128;59.340;18.040;2022-12-29T05:17:48;3.77;;;2.90;;
12129;SDS011;6128;59.340;18.040;2022-12-29T05:20:15;5.53;;;3.10;;
12129;SDS011;6128;59.340;18.040;2022-12-29T05:22:42;3.40;;;3.10;;
12129;SDS011;6128;59.340;18.040;2022-12-29T05:25:09;4.13;;;3.30;;
12129;SDS011;6128;59.340;18.040;2022-12-29T05:27:39;2.90;;;2.70;;
12129;SDS011;6128;59.340;18.040;2022-12-29T05:30:07;3.57;;;3.27;;
12129;SDS011;6128;59.340;18.040;2022-12-29T05:32:36;2.83;;;2.63;;
12129;SDS011;6128;59.340;18.040;2022-12-29T05:35:03;3.20;;;2.90;;
12129;SDS011;6128;59.340;18.040;2022-12-29T05:37:31;3.43;;;2.97;;
12129;SDS011;6128;59.340;18.040;2022-12-29T05:39:58;3.70;;;3.07;;
12129;SDS011;6128;59.340;18.040;2022-12-29T05:42:25;3.70;;;3.40;;
12129;SDS011;6128;59.340;18.040;2022-12-29T05:44:52;4.00;;;3.10;;
12129;SDS011;6128;59.340;18.040;2022-12-29T05:47:19;5.20;;;3.67;;
12129;SDS011;6128;59.340;18.040;2022-12-29T05:49:49;5.87;;;3.17;;
12129;SDS011;6128;59.340;18.040;2022-12-29T05:52:16;3.30;;;3.00;;
12129;SDS011;6128;59.340;18.040;2022-12-29T05:54:43;3.83;;;3.40;;
12129;SDS011;6128;59.340;18.040;2022-12-29T05:57:11;3.87;;;3.23;;
12129;SDS011;6128;59.340;18.040;2022-12-29T05:59:38;3.43;;;3.10;;
12129;SDS011;6128;59.340;18.040;2022-12-29T06:02:05;4.17;;;3.23;;
12129;SDS011;6128;59.340;18.040;2022-12-29T06:04:32;3.17;;;2.80;;
12129;SDS011;6128;59.340;18.040;2022-12-29T06:07:00;3.43;;;2.70;;
12129;SDS011;6128;59.340;18.040;2022-12-29T06:09:27;2.80;;;2.60;;
12129;SDS011;6128;59.340;18.040;2022-12-29T06:11:54;3.63;;;2.83;;
12129;SDS011;6128;59.340;18.040;2022-12-29T06:14:21;2.80;;;2.60;;
12129;SDS011;6128;59.340;18.040;2022-12-29T06:16:48;3.90;;;3.17;;
12129;SDS011;6128;59.340;18.040;2022-12-29T06:19:15;3.10;;;2.80;;
12129;SDS011;6128;59.340;18.040;2022-12-29T06:21:42;3.17;;;2.40;;
12129;SDS011;6128;59.340;18.040;2022-12-29T06:24:11;3.40;;;2.83;;
12129;SDS011;6128;59.340;18.040;2022-12-29T06:26:38;3.33;;;3.03;;
12129;SDS011;6128;59.340;18.040;2022-12-29T06:29:05;3.90;;;3.03;;
12129;SDS011;6128;59.340;18.040;2022-12-29T06:31:33;4.03;;;3.17;;
12129;SDS011;6128;59.340;18.040;2022-12-29T06:34:00;4.03;;;3.07;;
12129;SDS011;6128;59.340;18.040;2022-12-29T06:36:28;3.23;;;2.90;;
12129;SDS011;6128;59.340;18.040;2022-12-29T06:38:55;4.33;;;3.87;;
12129;SDS011;6128;59.340;18.040;2022-12-29T06:41:23;5.23;;;2.97;;
12129;SDS011;6128;59.340;18.040;2022-12-29T06:43:50;4.40;;;3.20;;
12129;SDS011;6128;59.340;18.040;2022-12-29T06:46:17;4.60;;;3.50;;
12129;SDS011;6128;59.340;18.040;2022-12-29T06:48:44;4.23;;;3.30;;
12129;SDS011;6128;59.340;18.040;2022-12-29T06:51:12;6.27;;;3.20;;
12129;SDS011;6128;59.340;18.040;2022-12-29T06:53:39;5.50;;;3.17;;
12129;SDS011;6128;59.340;18.040;2022-12-29T06:56:06;4.63;;;3.27;;
12129;SDS011;6128;59.340;18.040;2022-12-29T06:58:35;7.57;;;3.93;;
12129;SDS011;6128;59.340;18.040;2022-12-29T07:01:02;5.20;;;3.80;;
12129;SDS011;6128;59.340;18.040;2022-12-29T07:03:29;5.90;;;4.00;;
12129;SDS011;6128;59.340;18.040;2022-12-29T07:05:57;7.03;;;4.00;;
12129;SDS011;6128;59.340;18.040;2022-12-29T07:08:24;10.13;;;4.50;;
12129;SDS011;6128;59.340;18.040;2022-12-29T07:10:51;6.90;;;4.70;;
12129;SDS011;6128;59.340;18.040;2022-12-29T07:13:18;14.63;;;7.27;;
12129;SDS011;6128;59.340;18.040;2022-12-29T07:15:46;8.17;;;5.00;;
12129;SDS011;6128;59.340;18.040;2022-12-29T07:18:13;12.13;;;5.03;;
12129;SDS011;6128;59.340;18.040;2022-12-29T07:20:40;14.10;;;5.77;;
12129;SDS011;6128;59.340;18.040;2022-12-29T07:23:07;14.53;;;5.77;;
12129;SDS011;6128;59.340;18.040;2022-12-29T07:25:34;15.17;;;6.13;;
12129;SDS011;6128;59.340;18.040;2022-12-29T07:28:02;12.47;;;5.50;;
12129;SDS011;6128;59.340;18.040;2022-12-29T07:30:29;23.73;;;6.97;;
12129;SDS011;6128;59.340;18.040;2022-12-29T07:32:58;10.10;;;5.33;;
12129;SDS011;6128;59.340;18.040;2022-12-29T07:35:25;9.30;;;5.27;;
12129;SDS011;6128;59.340;18.040;2022-12-29T07:37:52;14.93;;;6.20;;
12129;SDS011;6128;59.340;18.040;2022-12-29T07:40:19;9.83;;;5.50;;
12129;SDS011;6128;59.340;18.040;2022-12-29T07:42:46;12.90;;;5.73;;
12129;SDS011;6128;59.340;18.040;2022-12-29T07:45:13;12.03;;;5.20;;
12129;SDS011;6128;59.340;18.040;2022-12-29T07:47:41;13.43;;;5.73;;
12129;SDS011;6128;59.340;18.040;2022-12-29T07:50:09;13.87;;;4.97;;
12129;SDS011;6128;59.340;18.040;2022-12-29T07:52:37;12.50;;;5.43;;
12129;SDS011;6128;59.340;18.040;2022-12-29T07:55:04;11.03;;;5.30;;
12129;SDS011;6128;59.340;18.040;2022-12-29T07:57:32;6.33;;;4.70;;
12129;SDS011;6128;59.340;18.040;2022-12-29T08:00:02;9.50;;;5.43;;
12129;SDS011;6128;59.340;18.040;2022-12-29T08:02:29;9.83;;;4.80;;
12129;SDS011;6128;59.340;18.040;2022-12-29T08:04:56;6.90;;;4.60;;
12129;SDS011;6128;59.340;18.040;2022-12-29T08:07:25;10.17;;;4.13;;
12129;SDS011;6128;59.340;18.040;2022-12-29T08:09:52;6.47;;;4.00;;
12129;SDS011;6128;59.340;18.040;2022-12-29T08:12:28;6.13;;;3.97;;
12129;SDS011;6128;59.340;18.040;2022-12-29T08:14:55;6.20;;;3.27;;
12129;SDS011;6128;59.340;18.040;2022-12-29T08:17:22;3.80;;;3.40;;
12129;SDS011;6128;59.340;18.040;2022-12-29T08:19:49;7.07;;;3.80;;
12129;SDS011;6128;59.340;18.040;2022-12-29T08:22:16;4.53;;;3.33;;
12129;SDS011;6128;59.340;18.040;2022-12-29T08:24:45;3.93;;;3.30;;
12129;SDS011;6128;59.340;18.040;2022-12-29T08:27:13;3.97;;;2.73;;
12129;SDS011;6128;59.340;18.040;2022-12-29T08:29:40;5.10;;;2.70;;
12129;SDS011;6128;59.340;18.040;2022-12-29T08:32:07;4.97;;;2.73;;
12129;SDS011;6128;59.340;18.040;2022-12-29T08:34:34;4.97;;;2.57;;
12129;SDS011;6128;59.340;18.040;2022-12-29T08:37:01;3.23;;;2.50;;
12129;SDS011;6128;59.340;18.040;2022-12-29T08:39:28;2.73;;;2.43;;
12129;SDS011;6128;59.340;18.040;2022-12-29T08:41:57;3.43;;;2.60;;
12129;SDS011;6128;59.340;18.040;2022-12-29T08:44:24;3.53;;;2.67;;
12129;SDS011;6128;59.340;18.040;2022-12-29T08:46:51;2.77;;;2.40;;
12129;SDS011;6128;59.340;18.040;2022-12-29T08:49:18;3.33;;;2.67;;
12129;SDS011;6128;59.340;18.040;2022-12-29T08:51:45;4.67;;;3.30;;
12129;SDS011;6128;59.340;18.040;2022-12-29T08:54:12;4.70;;;2.97;;
12129;SDS011;6128;59.340;18.040;2022-12-29T08:56:39;2.97;;;2.67;;
12129;SDS011;6128;59.340;18.040;2022-12-29T08:59:08;6.37;;;3.27;;
12129;SDS011;6128;59.340;18.040;2022-12-29T09:01:35;3.47;;;2.73;;
12129;SDS011;6128;59.340;18.040;2022-12-29T09:04:05;3.27;;;2.50;;
12129;SDS011;6128;59.340;18.040;2022-12-29T09:06:32;4.27;;;2.77;;
12129;SDS011;6128;59.340;18.040;2022-12-29T09:08:59;2.53;;;2.23;;
12129;SDS011;6128;59.340;18.040;2022-12-29T09:11:27;3.17;;;2.13;;
12129;SDS011;6128;59.340;18.040;2022-12-29T09:13:54;1.70;;;1.60;;
12129;SDS011;6128;59.340;18.040;2022-12-29T09:16:23;1.60;;;1.50;;
12129;SDS011;6128;59.340;18.040;2022-12-29T09:18:52;2.17;;;1.70;;
12129;SDS011;6128;59.340;18.040;2022-12-29T09:21:19;1.57;;;1.37;;
12129;SDS011;6128;59.340;18.040;2022-12-29T09:23:47;1.63;;;1.50;;
12129;SDS011;6128;59.340;18.040;2022-12-29T09:26:14;1.60;;;1.50;;
12129;SDS011;6128;59.340;18.040;2022-12-29T09:28:41;1.50;;;1.10;;
12129;SDS011;6128;59.340;18.040;2022-12-29T09:31:09;2.40;;;1.20;;
12129;SDS011;6128;59.340;18.040;2022-12-29T09:33:38;1.57;;;1.00;;
12129;SDS011;6128;59.340;18.040;2022-12-29T09:36:05;0.60;;;0.60;;
12129;SDS011;6128;59.340;18.040;2022-12-29T09:38:33;2.43;;;0.80;;
12129;SDS011;6128;59.340;18.040;2022-12-29T09:41:01;1.77;;;0.70;;
12129;SDS011;6128;59.340;18.040;2022-12-29T09:43:47;2.53;;;0.87;;
12129;SDS011;6128;59.340;18.040;2022-12-29T09:46:25;0.87;;;0.80;;
12129;SDS011;6128;59.340;18.040;2022-12-29T09:48:55;1.30;;;1.03;;
12129;SDS011;6128;59.340;18.040;2022-12-29T09:51:32;0.97;;;0.97;;
12129;SDS011;6128;59.340;18.040;2022-12-29T09:54:04;1.20;;;1.10;;
12129;SDS011;6128;59.340;18.040;2022-12-29T09:56:49;1.40;;;1.30;;
12129;SDS011;6128;59.340;18.040;2022-12-29T09:59:19;1.80;;;1.50;;
12129;SDS011;6128;59.340;18.040;2022-12-29T10:01:51;2.30;;;2.10;;
12129;SDS011;6128;59.340;18.040;2022-12-29T10:04:24;3.77;;;2.17;;
12129;SDS011;6128;59.340;18.040;2022-12-29T10:06:54;2.43;;;2.20;;
12129;SDS011;6128;59.340;18.040;2022-12-29T10:09:24;2.70;;;2.50;;
12129;SDS011;6128;59.340;18.040;2022-12-29T10:12:00;2.03;;;1.87;;
12129;SDS011;6128;59.340;18.040;2022-12-29T10:14:38;3.70;;;2.63;;
12129;SDS011;6128;59.340;18.040;2022-12-29T10:17:20;2.50;;;2.23;;
12129;SDS011;6128;59.340;18.040;2022-12-29T10:19:55;2.47;;;2.20;;
12129;SDS011;6128;59.340;18.040;2022-12-29T10:22:42;3.50;;;2.67;;
12129;SDS011;6128;59.340;18.040;2022-12-29T10:25:19;3.00;;;2.70;;
12129;SDS011;6128;59.340;18.040;2022-12-29T10:27:49;4.10;;;2.20;;
12129;SDS011;6128;59.340;18.040;2022-12-29T10:30:17;2.93;;;2.10;;
12129;SDS011;6128;59.340;18.040;2022-12-29T10:32:45;4.97;;;2.20;;
12129;SDS011;6128;59.340;18.040;2022-12-29T10:35:18;2.10;;;1.90;;
12129;SDS011;6128;59.340;18.040;2022-12-29T10:37:49;2.03;;;1.70;;
12129;SDS011;6128;59.340;18.040;2022-12-29T10:40:23;2.10;;;1.90;;
12129;SDS011;6128;59.340;18.040;2022-12-29T10:42:53;3.10;;;2.10;;
12129;SDS011;6128;59.340;18.040;2022-12-29T10:45:22;2.60;;;1.90;;
12129;SDS011;6128;59.340;18.040;2022-12-29T10:47:56;3.77;;;2.63;;
12129;SDS011;6128;59.340;18.040;2022-12-29T10:50:29;3.10;;;2.37;;
12129;SDS011;6128;59.340;18.040;2022-12-29T10:52:57;1.87;;;1.70;;
12129;SDS011;6128;59.340;18.040;2022-12-29T10:55:27;1.93;;;1.73;;
12129;SDS011;6128;59.340;18.040;2022-12-29T10:57:59;3.57;;;2.60;;
12129;SDS011;6128;59.340;18.040;2022-12-29T11:00:31;2.13;;;1.77;;
12129;SDS011;6128;59.340;18.040;2022-12-29T11:06:06;3.30;;;1.67;;
12129;SDS011;6128;59.340;18.040;2022-12-29T11:08:38;6.37;;;5.57;;
12129;SDS011;6128;59.340;18.040;2022-12-29T11:11:11;1.40;;;1.20;;
12129;SDS011;6128;59.340;18.040;2022-12-29T11:13:48;1.73;;;1.30;;
12129;SDS011;6128;59.340;18.040;2022-12-29T11:16:24;1.17;;;1.00;;
12129;SDS011;6128;59.340;18.040;2022-12-29T11:18:55;1.00;;;0.90;;
12129;SDS011;6128;59.340;18.040;2022-12-29T11:21:26;1.40;;;1.27;;
12129;SDS011;6128;59.340;18.040;2022-12-29T11:23:58;1.40;;;1.30;;
12129;SDS011;6128;59.340;18.040;2022-12-29T11:26:26;1.47;;;1.37;;
12129;SDS011;6128;59.340;18.040;2022-12-29T11:29:05;1.00;;;1.00;;
12129;SDS011;6128;59.340;18.040;2022-12-29T11:31:51;2.43;;;1.07;;
12129;SDS011;6128;59.340;18.040;2022-12-29T11:34:21;0.83;;;0.83;;
12129;SDS011;6128;59.340;18.040;2022-12-29T11:36:52;2.50;;;1.13;;
12129;SDS011;6128;59.340;18.040;2022-12-29T11:39:26;1.00;;;1.00;;
12129;SDS011;6128;59.340;18.040;2022-12-29T11:41:56;1.07;;;0.80;;
12129;SDS011;6128;59.340;18.040;2022-12-29T11:44:24;0.93;;;0.70;;
12129;SDS011;6128;59.340;18.040;2022-12-29T11:46:52;0.80;;;0.80;;
12129;SDS011;6128;59.340;18.040;2022-12-29T11:49:24;0.90;;;0.90;;
12129;SDS011;6128;59.340;18.040;2022-12-29T11:51:56;1.83;;;0.93;;
12129;SDS011;6128;59.340;18.040;2022-12-29T11:54:24;1.10;;;1.00;;
12129;SDS011;6128;59.340;18.040;2022-12-29T11:56:54;1.20;;;1.10;;
12129;SDS011;6128;59.340;18.040;2022-12-29T11:59:34;1.53;;;1.10;;
12129;SDS011;6128;59.340;18.040;2022-12-29T12:05:20;1.20;;;1.10;;
12129;SDS011;6128;59.340;18.040;2022-12-29T12:07:54;1.63;;;1.30;;
12129;SDS011;6128;59.340;18.040;2022-12-29T12:10:27;1.20;;;1.10;;
12129;SDS011;6128;59.340;18.040;2022-12-29T12:13:05;2.07;;;1.30;;
12129;SDS011;6128;59.340;18.040;2022-12-29T12:15:42;1.93;;;1.13;;
12129;SDS011;6128;59.340;18.040;2022-12-29T12:18:16;1.30;;;1.20;;
12129;SDS011;6128;59.340;18.040;2022-12-29T12:20:47;1.57;;;1.20;;
12129;SDS011;6128;59.340;18.040;2022-12-29T12:23:22;2.50;;;2.30;;
12129;SDS011;6128;59.340;18.040;2022-12-29T12:25:57;1.87;;;1.20;;
12129;SDS011;6128;59.340;18.040;2022-12-29T12:28:33;1.63;;;1.10;;
12129;SDS011;6128;59.340;18.040;2022-12-29T12:31:06;1.80;;;1.70;;
12129;SDS011;6128;59.340;18.040;2022-12-29T12:33:44;1.67;;;1.40;;
12129;SDS011;6128;59.340;18.040;2022-12-29T12:36:21;2.40;;;1.10;;
12129;SDS011;6128;59.340;18.040;2022-12-29T12:39:01;1.23;;;1.13;;
12129;SDS011;6128;59.340;18.040;2022-12-29T12:41:33;1.10;;;1.10;;
12129;SDS011;6128;59.340;18.040;2022-12-29T12:44:12;1.40;;;1.20;;
12129;SDS011;6128;59.340;18.040;2022-12-29T12:46:51;1.10;;;1.00;;
12129;SDS011;6128;59.340;18.040;2022-12-29T12:52:36;1.27;;;1.17;;
12129;SDS011;6128;59.340;18.040;2022-12-29T12:55:29;1.00;;;1.00;;
12129;SDS011;6128;59.340;18.040;2022-12-29T12:58:08;1.37;;;1.23;;
12129;SDS011;6128;59.340;18.040;2022-12-29T13:00:44;1.20;;;1.10;;
12129;SDS011;6128;59.340;18.040;2022-12-29T13:03:23;1.67;;;1.57;;
12129;SDS011;6128;59.340;18.040;2022-12-29T13:06:09;1.60;;;1.50;;
12129;SDS011;6128;59.340;18.040;2022-12-29T13:08:56;1.50;;;1.40;;
12129;SDS011;6128;59.340;18.040;2022-12-29T13:11:49;1.50;;;1.40;;
12129;SDS011;6128;59.340;18.040;2022-12-29T13:14:29;1.67;;;1.57;;
12129;SDS011;6128;59.340;18.040;2022-12-29T13:17:07;1.17;;;1.10;;
12129;SDS011;6128;59.340;18.040;2022-12-29T13:19:40;1.60;;;1.50;;
12129;SDS011;6128;59.340;18.040;2022-12-29T13:22:12;1.63;;;1.13;;
12129;SDS011;6128;59.340;18.040;2022-12-29T13:24:47;1.43;;;1.33;;
12129;SDS011;6128;59.340;18.040;2022-12-29T13:27:26;1.60;;;1.50;;
12129;SDS011;6128;59.340;18.040;2022-12-29T13:29:59;1.43;;;1.17;;
12129;SDS011;6128;59.340;18.040;2022-12-29T13:32:35;1.40;;;1.30;;
12129;SDS011;6128;59.340;18.040;2022-12-29T13:35:25;1.33;;;1.23;;
12129;SDS011;6128;59.340;18.040;2022-12-29T13:38:03;1.30;;;1.20;;
12129;SDS011;6128;59.340;18.040;2022-12-29T13:40:38;0.90;;;0.90;;
12129;SDS011;6128;59.340;18.040;2022-12-29T13:43:11;1.13;;;1.10;;
12129;SDS011;6128;59.340;18.040;2022-12-29T13:45:40;1.30;;;1.10;;
12129;SDS011;6128;59.340;18.040;2022-12-29T13:48:10;1.23;;;1.00;;
12129;SDS011;6128;59.340;18.040;2022-12-29T13:50:42;0.80;;;0.80;;
12129;SDS011;6128;59.340;18.040;2022-12-29T13:53:15;0.80;;;0.80;;
12129;SDS011;6128;59.340;18.040;2022-12-29T13:55:54;1.00;;;1.00;;
12129;SDS011;6128;59.340;18.040;2022-12-29T13:58:28;0.70;;;0.70;;
12129;SDS011;6128;59.340;18.040;2022-12-29T14:01:02;1.00;;;0.90;;
12129;SDS011;6128;59.340;18.040;2022-12-29T14:03:43;1.53;;;1.00;;
12129;SDS011;6128;59.340;18.040;2022-12-29T14:06:15;0.70;;;0.70;;
12129;SDS011;6128;59.340;18.040;2022-12-29T14:08:49;0.80;;;0.80;;
12129;SDS011;6128;59.340;18.040;2022-12-29T14:11:20;0.73;;;0.73;;
12129;SDS011;6128;59.340;18.040;2022-12-29T14:13:53;0.80;;;0.70;;
12129;SDS011;6128;59.340;18.040;2022-12-29T14:16:25;0.70;;;0.70;;
12129;SDS011;6128;59.340;18.040;2022-12-29T14:18:54;1.63;;;0.63;;
12129;SDS011;6128;59.340;18.040;2022-12-29T14:21:24;1.40;;;1.00;;
12129;SDS011;6128;59.340;18.040;2022-12-29T14:24:00;0.80;;;0.80;;
12129;SDS011;6128;59.340;18.040;2022-12-29T14:26:54;0.70;;;0.70;;
12129;SDS011;6128;59.340;18.040;2022-12-29T14:38:15;0.90;;;0.90;;
12129;SDS011;6128;59.340;18.040;2022-12-29T14:40:45;1.53;;;1.13;;
12129;SDS011;6128;59.340;18.040;2022-12-29T14:43:14;1.57;;;1.30;;
12129;SDS011;6128;59.340;18.040;2022-12-29T14:45:51;1.20;;;1.13;;
12129;SDS011;6128;59.340;18.040;2022-12-29T14:48:32;1.60;;;1.50;;
12129;SDS011;6128;59.340;18.040;2022-12-29T14:51:15;1.43;;;1.33;;
12129;SDS011;6128;59.340;18.040;2022-12-29T14:53:46;2.40;;;1.70;;
12129;SDS011;6128;59.340;18.040;2022-12-29T14:56:15;2.30;;;1.90;;
12129;SDS011;6128;59.340;18.040;2022-12-29T14:58:47;2.70;;;2.50;;
12129;SDS011;6128;59.340;18.040;2022-12-29T15:01:20;2.73;;;2.50;;
12129;SDS011;6128;59.340;18.040;2022-12-29T15:03:53;3.57;;;2.97;;
12129;SDS011;6128;59.340;18.040;2022-12-29T15:06:24;3.00;;;2.80;;
12129;SDS011;6128;59.340;18.040;2022-12-29T15:08:56;3.47;;;2.93;;
12129;SDS011;6128;59.340;18.040;2022-12-29T15:11:31;3.60;;;3.30;;
12129;SDS011;6128;59.340;18.040;2022-12-29T15:14:30;3.70;;;3.33;;
12129;SDS011;6128;59.340;18.040;2022-12-29T15:17:00;3.67;;;3.37;;
12129;SDS011;6128;59.340;18.040;2022-12-29T15:19:48;3.83;;;3.10;;
12129;SDS011;6128;59.340;18.040;2022-12-29T15:22:15;3.40;;;3.20;;
12129;SDS011;6128;59.340;18.040;2022-12-29T15:24:42;3.80;;;3.50;;
12129;SDS011;6128;59.340;18.040;2022-12-29T15:27:11;3.73;;;3.40;;
12129;SDS011;6128;59.340;18.040;2022-12-29T15:29:41;3.23;;;2.93;;
12129;SDS011;6128;59.340;18.040;2022-12-29T15:32:16;2.87;;;2.67;;
12129;SDS011;6128;59.340;18.040;2022-12-29T15:34:51;2.80;;;2.60;;
12129;SDS011;6128;59.340;18.040;2022-12-29T15:37:28;3.10;;;2.43;;
12129;SDS011;6128;59.340;18.040;2022-12-29T15:40:02;3.23;;;2.10;;